createdAt,value
2022-09-28T00:01:25.551Z,7.90
2022-09-28T00:03:55.132Z,7.90
2022-09-28T00:06:26.804Z,7.90
2022-09-28T00:08:54.311Z,7.90
2022-09-28T00:11:23.469Z,7.90
2022-09-28T00:13:52.885Z,8.00
2022-09-28T00:16:25.553Z,7.90
2022-09-28T00:18:53.167Z,8.00
2022-09-28T00:21:22.611Z,7.90
2022-09-28T00:24:11.700Z,7.90
2022-09-28T00:26:41.098Z,7.90
2022-09-28T00:29:12.802Z,7.90
2022-09-28T00:31:39.584Z,7.90
2022-09-28T00:34:06.351Z,8.00
2022-09-28T00:36:33.393Z,8.00
2022-09-28T00:39:05.075Z,8.00
2022-09-28T00:41:31.813Z,8.00
2022-09-28T00:44:37.658Z,8.00
2022-09-28T00:47:14.122Z,8.10
2022-09-28T00:50:02.853Z,8.10
2022-09-28T00:52:35.519Z,8.10
2022-09-28T00:55:04.899Z,8.10
2022-09-28T00:57:32.757Z,8.10
2022-09-28T01:00:00.983Z,8.20
2022-09-28T01:02:27.844Z,8.20
2022-09-28T01:04:56.972Z,8.20
2022-09-28T01:07:25.175Z,8.20
2022-09-28T01:09:54.088Z,8.20
2022-09-28T01:12:20.745Z,8.20
2022-09-28T01:14:49.371Z,8.20
2022-09-28T01:17:21.099Z,8.20
2022-09-28T01:20:09.954Z,8.20
2022-09-28T01:23:02.327Z,8.30
2022-09-28T01:25:55.085Z,8.30
2022-09-28T01:28:27.627Z,8.20
2022-09-28T01:31:12.825Z,8.30
2022-09-28T01:33:45.043Z,8.30
2022-09-28T01:36:40.082Z,8.30
2022-09-28T01:39:10.965Z,8.30
2022-09-28T01:41:40.882Z,8.30
2022-09-28T01:44:15.576Z,8.30
2022-09-28T01:46:46.589Z,8.40
2022-09-28T01:49:17.625Z,8.40
2022-09-28T01:51:59.362Z,8.40
2022-09-28T01:54:37.276Z,8.40
2022-09-28T01:57:14.245Z,8.40
2022-09-28T01:59:53.585Z,8.40
2022-09-28T02:02:27.187Z,8.40
2022-09-28T02:05:04.836Z,8.40
2022-09-28T02:07:46.655Z,8.40
2022-09-28T02:10:27.136Z,8.40
2022-09-28T02:12:57.512Z,8.40
2022-09-28T02:15:30.487Z,8.40
2022-09-28T02:17:57.481Z,8.40
2022-09-28T02:20:24.452Z,8.40
2022-09-28T02:22:54.383Z,8.40
2022-09-28T02:25:42.876Z,8.50
2022-09-28T02:28:13.400Z,8.50
2022-09-28T02:30:43.448Z,8.50
2022-09-28T02:33:21.810Z,8.50
2022-09-28T02:35:48.787Z,8.50
2022-09-28T02:38:16.158Z,8.50
2022-09-28T02:40:53.976Z,8.50
2022-09-28T02:43:25.021Z,8.50
2022-09-28T02:46:11.944Z,8.60
2022-09-28T02:49:24.595Z,8.70
2022-09-28T02:52:19.073Z,8.60
2022-09-28T02:54:57.787Z,8.60
2022-09-28T02:58:03.509Z,8.60
2022-09-28T03:00:33.922Z,8.60
2022-09-28T03:03:15.772Z,8.60
2022-09-28T03:06:03.306Z,8.60
2022-09-28T03:09:03.173Z,8.60
2022-09-28T03:11:47.541Z,8.60
2022-09-28T03:14:15.227Z,8.60
2022-09-28T03:16:46.181Z,8.60
2022-09-28T03:19:14.260Z,8.60
2022-09-28T03:21:41.344Z,8.60
2022-09-28T03:24:10.467Z,8.60
2022-09-28T03:26:38.779Z,8.60
2022-09-28T03:29:05.644Z,8.60
2022-09-28T03:31:32.437Z,8.60
2022-09-28T03:33:59.207Z,8.60
2022-09-28T03:36:25.857Z,8.60
2022-09-28T03:38:55.479Z,8.60
2022-09-28T03:41:23.787Z,8.60
2022-09-28T03:43:50.531Z,8.70
2022-09-28T03:46:17.535Z,8.60
2022-09-28T03:48:44.285Z,8.60
2022-09-28T03:51:12.155Z,8.60
2022-09-28T03:53:39.727Z,8.60
2022-09-28T03:56:12.538Z,8.60
2022-09-28T03:58:39.540Z,8.60
2022-09-28T04:01:17.724Z,8.60
2022-09-28T04:03:45.773Z,8.60
2022-09-28T04:06:13.338Z,8.60
2022-09-28T04:08:40.149Z,8.60
2022-09-28T04:11:06.914Z,8.60
2022-09-28T04:13:33.707Z,8.60
2022-09-28T04:16:01.483Z,8.60
2022-09-28T04:18:28.718Z,8.60
2022-09-28T04:21:10.912Z,8.70
2022-09-28T04:23:39.640Z,8.60
2022-09-28T04:26:08.669Z,8.60
2022-09-28T04:28:53.905Z,8.60
2022-09-28T04:31:23.567Z,8.60
2022-09-28T04:33:50.350Z,8.60
2022-09-28T04:36:17.885Z,8.60
2022-09-28T04:38:53.520Z,8.60
2022-09-28T04:41:24.377Z,8.60
2022-09-28T04:43:51.073Z,8.70
2022-09-28T04:46:18.584Z,8.70
2022-09-28T04:48:45.801Z,8.70
2022-09-28T04:51:12.708Z,8.70
2022-09-28T04:53:39.355Z,8.70
2022-09-28T04:56:11.599Z,8.60
2022-09-28T04:58:38.767Z,8.50
2022-09-28T05:01:09.475Z,8.50
2022-09-28T05:03:36.200Z,8.50
2022-09-28T05:06:03.235Z,8.50
2022-09-28T05:08:30.357Z,8.40
2022-09-28T05:11:01.660Z,8.40
2022-09-28T05:13:29.802Z,8.40
2022-09-28T05:16:01.733Z,8.40
2022-09-28T05:18:31.229Z,8.40
2022-09-28T05:20:58.189Z,8.40
2022-09-28T05:23:25.120Z,8.40
2022-09-28T05:25:52.025Z,8.30
2022-09-28T05:28:27.969Z,8.30
2022-09-28T05:31:01.986Z,8.30
2022-09-28T05:33:29.406Z,8.30
2022-09-28T05:36:00.901Z,8.30
2022-09-28T05:38:28.475Z,8.30
2022-09-28T05:40:55.431Z,8.30
2022-09-28T05:43:28.294Z,8.30
2022-09-28T05:45:55.962Z,8.30
2022-09-28T05:48:23.576Z,8.40
2022-09-28T05:50:54.148Z,8.30
2022-09-28T05:53:22.051Z,8.40
2022-09-28T05:55:48.754Z,8.30
2022-09-28T05:58:15.973Z,8.40
2022-09-28T06:00:43.193Z,8.30
2022-09-28T06:03:14.153Z,8.30
2022-09-28T06:05:41.279Z,8.30
2022-09-28T06:08:10.507Z,8.30
2022-09-28T06:10:38.176Z,8.30
2022-09-28T06:13:05.220Z,8.30
2022-09-28T06:15:33.667Z,8.30
2022-09-28T06:18:02.246Z,8.30
2022-09-28T06:20:31.799Z,8.40
2022-09-28T06:22:58.614Z,8.40
2022-09-28T06:25:27.589Z,8.40
2022-09-28T06:28:15.066Z,8.40
2022-09-28T06:30:42.976Z,8.40
2022-09-28T06:33:14.311Z,8.40
2022-09-28T06:35:41.951Z,8.40
2022-09-28T06:38:09.281Z,8.40
2022-09-28T06:40:36.280Z,8.40
2022-09-28T06:43:10.579Z,8.50
2022-09-28T06:45:38.307Z,8.50
2022-09-28T06:48:05.839Z,8.60
2022-09-28T06:50:37.287Z,8.60
2022-09-28T06:53:06.803Z,8.50
2022-09-28T06:55:34.553Z,8.50
2022-09-28T06:58:04.635Z,8.60
2022-09-28T07:00:34.154Z,8.60
2022-09-28T07:03:02.619Z,8.60
2022-09-28T07:05:29.985Z,8.60
2022-09-28T07:07:57.436Z,8.60
2022-09-28T07:10:28.648Z,8.60
2022-09-28T07:13:02.491Z,8.60
2022-09-28T07:15:29.996Z,8.60
2022-09-28T07:18:03.565Z,8.60
2022-09-28T07:20:39.114Z,8.60
2022-09-28T07:23:18.896Z,8.60
2022-09-28T07:25:47.817Z,8.60
2022-09-28T07:28:15.767Z,8.60
2022-09-28T07:30:44.690Z,8.50
2022-09-28T07:33:14.410Z,8.50
2022-09-28T07:35:44.097Z,8.50
2022-09-28T07:38:11.335Z,8.60
2022-09-28T07:40:56.981Z,8.50
2022-09-28T07:43:23.921Z,8.50
2022-09-28T07:45:53.038Z,8.50
2022-09-28T07:48:20.928Z,8.50
2022-09-28T07:50:56.615Z,8.50
2022-09-28T07:53:25.194Z,8.50
2022-09-28T07:55:52.956Z,8.50
2022-09-28T07:58:20.611Z,8.50
2022-09-28T08:00:48.761Z,8.50
2022-09-28T08:03:16.717Z,8.60
2022-09-28T08:05:43.529Z,8.60
2022-09-28T08:08:10.414Z,8.60
2022-09-28T08:10:37.784Z,8.60
2022-09-28T08:13:06.523Z,8.70
2022-09-28T08:15:36.875Z,8.70
2022-09-28T08:18:04.416Z,8.70
2022-09-28T08:20:51.662Z,8.60
2022-09-28T08:23:18.841Z,8.70
2022-09-28T08:25:49.562Z,8.80
2022-09-28T08:28:20.140Z,8.80
2022-09-28T08:30:47.422Z,8.90
2022-09-28T08:33:15.990Z,8.90
2022-09-28T08:35:43.049Z,9.00
2022-09-28T08:38:10.613Z,9.00
2022-09-28T08:41:19.143Z,9.10
2022-09-28T08:43:51.810Z,9.10
2022-09-28T08:46:25.040Z,9.10
2022-09-28T08:49:24.529Z,9.20
2022-09-28T08:51:55.212Z,9.20
2022-09-28T08:54:48.820Z,9.30
2022-09-28T08:57:28.994Z,9.30
2022-09-28T08:59:58.295Z,9.40
2022-09-28T09:02:33.933Z,9.40
2022-09-28T09:05:03.905Z,9.40
2022-09-28T09:08:04.434Z,9.30
2022-09-28T09:10:49.184Z,9.30
2022-09-28T09:13:19.076Z,9.20
2022-09-28T09:15:47.668Z,9.30
2022-09-28T09:18:55.452Z,9.20
2022-09-28T09:21:48.920Z,9.20
2022-09-28T09:24:39.367Z,9.30
2022-09-28T09:27:32.635Z,9.30
2022-09-28T09:30:06.847Z,9.30
2022-09-28T09:32:53.317Z,9.40
2022-09-28T09:35:28.114Z,9.40
2022-09-28T09:38:09.335Z,9.40
2022-09-28T09:40:57.656Z,9.40
2022-09-28T09:43:56.065Z,9.50
2022-09-28T09:46:53.917Z,9.50
2022-09-28T09:49:45.831Z,9.50
2022-09-28T09:52:18.204Z,9.60
2022-09-28T09:55:14.311Z,9.70
2022-09-28T09:57:48.606Z,9.80
2022-09-28T10:00:16.363Z,9.80
2022-09-28T10:02:47.166Z,9.90
2022-09-28T10:05:13.885Z,9.90
2022-09-28T10:07:58.814Z,10.00
2022-09-28T10:10:33.904Z,10.00
2022-09-28T10:13:02.528Z,10.00
2022-09-28T10:15:31.966Z,10.10
2022-09-28T10:18:03.348Z,10.10
2022-09-28T10:20:37.072Z,10.10
2022-09-28T10:23:06.794Z,10.20
2022-09-28T10:25:37.869Z,10.20
2022-09-28T10:28:07.588Z,10.40
2022-09-28T10:30:44.078Z,10.40
2022-09-28T10:33:32.255Z,10.40
2022-09-28T10:36:04.610Z,10.40
2022-09-28T10:38:32.835Z,10.40
2022-09-28T10:41:10.398Z,10.30
2022-09-28T10:44:06.688Z,10.30
2022-09-28T10:46:35.095Z,10.30
2022-09-28T10:49:14.812Z,10.40
2022-09-28T10:51:46.821Z,10.40
2022-09-28T10:54:18.975Z,10.40
2022-09-28T10:56:46.774Z,10.50
2022-09-28T10:59:33.694Z,10.60
2022-09-28T11:02:12.694Z,10.60
2022-09-28T11:04:43.739Z,10.50
2022-09-28T11:07:31.851Z,10.50
2022-09-28T11:10:00.771Z,10.60
2022-09-28T11:12:43.970Z,10.70
2022-09-28T11:15:19.183Z,10.70
2022-09-28T11:17:46.243Z,10.70
2022-09-28T11:20:27.739Z,10.70
2022-09-28T11:23:01.107Z,10.80
2022-09-28T11:25:30.235Z,10.80
2022-09-28T11:28:04.328Z,10.80
2022-09-28T11:30:59.120Z,10.80
2022-09-28T11:33:46.031Z,10.80
2022-09-28T11:36:18.768Z,10.90
2022-09-28T11:39:16.363Z,10.90
2022-09-28T11:41:54.955Z,10.90
2022-09-28T11:44:44.743Z,11.00
2022-09-28T11:47:17.596Z,10.90
2022-09-28T11:49:48.318Z,11.00
2022-09-28T11:52:27.683Z,11.10
2022-09-28T11:55:09.953Z,11.00
2022-09-28T11:57:40.574Z,11.10
2022-09-28T12:00:31.384Z,11.00
2022-09-28T12:03:07.035Z,11.10
2022-09-28T12:05:40.319Z,11.10
2022-09-28T12:08:16.040Z,11.20
2022-09-28T12:10:53.860Z,11.10
2022-09-28T12:13:28.043Z,11.10
2022-09-28T12:16:32.662Z,11.20
2022-09-28T12:19:20.847Z,11.20
2022-09-28T12:21:55.244Z,11.20
2022-09-28T12:24:34.822Z,11.20
2022-09-28T12:27:10.455Z,11.30
2022-09-28T12:29:42.836Z,11.20
2022-09-28T12:32:31.005Z,11.20
2022-09-28T12:35:01.998Z,11.20
2022-09-28T12:37:55.587Z,11.20
2022-09-28T12:40:45.442Z,11.30
2022-09-28T12:43:21.295Z,11.30
2022-09-28T12:46:11.953Z,11.30
2022-09-28T12:52:34.075Z,11.30
2022-09-28T12:55:25.567Z,11.40
2022-09-28T12:58:21.723Z,11.40
2022-09-28T13:00:54.602Z,11.40
2022-09-28T13:03:45.779Z,11.40
2022-09-28T13:06:37.557Z,11.40
2022-09-28T13:09:10.241Z,11.40
2022-09-28T13:12:13.912Z,11.40
2022-09-28T13:15:26.230Z,11.40
2022-09-28T13:17:58.565Z,11.40
2022-09-28T13:20:39.477Z,11.50
2022-09-28T13:23:21.260Z,11.50
2022-09-28T13:26:16.960Z,11.50
2022-09-28T13:28:46.895Z,11.60
2022-09-28T13:31:19.602Z,11.60
2022-09-28T13:33:47.920Z,11.60
2022-09-28T13:36:33.018Z,11.60
2022-09-28T13:39:02.829Z,11.70
2022-09-28T13:41:40.475Z,11.60
2022-09-28T13:44:13.389Z,11.60
2022-09-28T13:47:18.803Z,11.60
2022-09-28T13:49:56.634Z,11.70
2022-09-28T13:52:40.438Z,11.70
2022-09-28T13:55:34.975Z,11.70
2022-09-28T13:58:23.177Z,11.60
2022-09-28T14:01:17.858Z,11.60
2022-09-28T14:04:10.270Z,11.60
2022-09-28T14:06:37.415Z,11.60
2022-09-28T14:09:13.437Z,11.60
2022-09-28T14:11:56.717Z,11.60
2022-09-28T14:14:45.616Z,11.70
2022-09-28T14:17:21.572Z,11.70
2022-09-28T14:20:05.426Z,11.70
2022-09-28T14:22:55.638Z,11.70
2022-09-28T14:25:44.479Z,11.60
2022-09-28T14:28:27.255Z,11.60
2022-09-28T14:30:58.900Z,11.70
2022-09-28T14:33:29.335Z,11.70
2022-09-28T14:36:07.686Z,11.70
2022-09-28T14:39:08.972Z,11.70
2022-09-28T14:41:39.955Z,11.70
2022-09-28T14:44:09.221Z,11.70
2022-09-28T14:46:40.633Z,11.70
2022-09-28T14:49:23.345Z,11.70
2022-09-28T14:51:53.182Z,11.70
2022-09-28T14:54:25.329Z,11.70
2022-09-28T14:57:04.986Z,11.60
2022-09-28T14:59:39.186Z,11.70
2022-09-28T15:02:12.353Z,11.70
2022-09-28T15:05:09.513Z,11.60
2022-09-28T15:07:50.218Z,11.60
2022-09-28T15:10:39.620Z,11.70
2022-09-28T15:13:25.445Z,11.70
2022-09-28T15:15:58.054Z,11.60
2022-09-28T15:18:42.874Z,11.60
2022-09-28T15:21:13.525Z,11.70
2022-09-28T15:23:45.731Z,11.60
2022-09-28T15:26:33.263Z,11.70
2022-09-28T15:29:04.437Z,11.60
2022-09-28T15:31:35.533Z,11.60
2022-09-28T15:34:20.756Z,11.60
2022-09-28T15:36:47.849Z,11.60
2022-09-28T15:39:25.116Z,11.60
2022-09-28T15:41:52.366Z,11.50
2022-09-28T15:44:29.015Z,11.60
2022-09-28T15:47:09.326Z,11.50
2022-09-28T15:49:43.643Z,11.50
2022-09-28T15:52:27.405Z,11.50
2022-09-28T15:54:54.833Z,11.50
2022-09-28T15:57:37.958Z,11.50
2022-09-28T16:00:27.045Z,11.40
2022-09-28T16:03:00.308Z,11.40
2022-09-28T16:05:52.248Z,11.40
2022-09-28T16:08:27.258Z,11.40
2022-09-28T16:11:06.712Z,11.30
2022-09-28T16:13:34.862Z,11.30
2022-09-28T16:16:01.868Z,11.30
2022-09-28T16:18:30.610Z,11.30
2022-09-28T16:21:20.401Z,11.30
2022-09-28T16:23:52.413Z,11.30
2022-09-28T16:26:32.090Z,11.30
2022-09-28T16:28:59.863Z,11.30
2022-09-28T16:31:33.594Z,11.30
2022-09-28T16:34:19.824Z,11.20
2022-09-28T16:36:48.887Z,11.20
2022-09-28T16:39:17.712Z,11.20
2022-09-28T16:41:55.990Z,11.20
2022-09-28T16:44:29.289Z,11.20
2022-09-28T16:47:00.150Z,11.10
2022-09-28T16:49:28.258Z,11.10
2022-09-28T16:51:54.988Z,11.00
2022-09-28T16:54:59.885Z,10.90
2022-09-28T16:57:26.589Z,10.90
2022-09-28T16:59:53.261Z,10.80
2022-09-28T17:05:13.861Z,10.60
2022-09-28T17:07:40.694Z,10.60
2022-09-28T17:10:22.621Z,10.60
2022-09-28T17:12:49.259Z,10.60
2022-09-28T17:15:19.646Z,10.50
2022-09-28T17:17:48.545Z,10.50
2022-09-28T17:20:22.704Z,10.40
2022-09-28T17:22:53.527Z,10.30
2022-09-28T17:25:22.685Z,10.30
2022-09-28T17:27:50.694Z,10.20
2022-09-28T17:30:18.902Z,10.20
2022-09-28T17:32:48.952Z,10.10
2022-09-28T17:35:26.038Z,10.10
2022-09-28T17:37:53.378Z,10.10
2022-09-28T17:40:22.405Z,10.10
2022-09-28T17:42:49.757Z,10.00
2022-09-28T17:45:18.147Z,10.00
2022-09-28T17:47:45.087Z,10.00
2022-09-28T17:50:25.800Z,9.90
2022-09-28T17:52:53.835Z,9.90
2022-09-28T17:55:30.345Z,9.80
2022-09-28T17:57:58.119Z,9.80
2022-09-28T18:00:27.410Z,9.70
2022-09-28T18:02:55.044Z,9.60
2022-09-28T18:05:24.521Z,9.60
2022-09-28T18:07:52.076Z,9.50
2022-09-28T18:10:23.895Z,9.50
2022-09-28T18:12:51.189Z,9.40
2022-09-28T18:15:19.014Z,9.40
2022-09-28T18:17:45.768Z,9.30
2022-09-28T18:20:13.208Z,9.30
2022-09-28T18:22:40.092Z,9.30
2022-09-28T18:25:07.326Z,9.20
2022-09-28T18:27:34.940Z,9.20
2022-09-28T18:30:02.011Z,9.20
2022-09-28T18:32:28.690Z,9.10
2022-09-28T18:34:55.377Z,9.10
2022-09-28T18:37:22.055Z,9.10
2022-09-28T18:39:48.695Z,9.00
2022-09-28T18:42:19.133Z,9.00
2022-09-28T18:44:46.234Z,9.00
2022-09-28T18:47:15.050Z,9.10
2022-09-28T18:49:46.431Z,8.90
2022-09-28T18:52:13.329Z,8.90
2022-09-28T18:54:40.301Z,8.80
2022-09-28T18:57:06.990Z,8.80
2022-09-28T18:59:33.835Z,8.80
2022-09-28T19:02:01.621Z,8.70
2022-09-28T19:04:28.478Z,8.70
2022-09-28T19:06:55.510Z,8.60
2022-09-28T19:09:24.618Z,8.60
2022-09-28T19:11:51.296Z,8.50
2022-09-28T19:14:18.003Z,8.50
2022-09-28T19:16:45.339Z,8.40
2022-09-28T19:19:14.451Z,8.40
2022-09-28T19:21:43.251Z,8.30
2022-09-28T19:24:16.741Z,8.30
2022-09-28T19:26:44.764Z,8.30
2022-09-28T19:29:12.109Z,8.20
2022-09-28T19:31:39.845Z,8.20
2022-09-28T19:34:08.246Z,8.30
2022-09-28T19:36:36.085Z,8.10
2022-09-28T19:39:03.411Z,8.10
2022-09-28T19:41:43.563Z,8.00
2022-09-28T19:44:35.813Z,8.00
2022-09-28T19:47:09.946Z,8.00
2022-09-28T19:49:38.605Z,8.00
2022-09-28T19:52:15.616Z,7.90
2022-09-28T19:55:05.675Z,7.90
2022-09-28T19:57:32.801Z,7.80
2022-09-28T20:00:03.249Z,7.70
2022-09-28T20:02:30.484Z,7.70
2022-09-28T20:04:57.277Z,7.70
2022-09-28T20:07:23.995Z,7.70
2022-09-28T20:09:50.754Z,7.70
2022-09-28T20:12:17.494Z,7.70
2022-09-28T20:14:44.140Z,7.60
2022-09-28T20:17:10.827Z,7.70
2022-09-28T20:19:37.477Z,7.60
2022-09-28T20:22:04.250Z,7.60
2022-09-28T20:24:31.705Z,7.50
2022-09-28T20:26:58.674Z,7.50
2022-09-28T20:29:25.532Z,7.50
2022-09-28T20:31:52.288Z,7.40
2022-09-28T20:34:19.143Z,7.40
2022-09-28T20:36:45.797Z,7.40
2022-09-28T20:39:12.792Z,7.40
2022-09-28T20:41:40.274Z,7.40
2022-09-28T20:44:07.289Z,7.40
2022-09-28T20:46:35.745Z,7.30
2022-09-28T20:49:03.062Z,7.30
2022-09-28T20:51:29.987Z,7.20
2022-09-28T20:53:58.587Z,7.20
2022-09-28T20:56:28.295Z,7.20
2022-09-28T20:58:55.505Z,7.10
2022-09-28T21:01:24.912Z,7.10
2022-09-28T21:03:56.372Z,7.00
2022-09-28T21:06:25.253Z,7.00
2022-09-28T21:08:52.489Z,6.90
2022-09-28T21:11:21.518Z,6.90
2022-09-28T21:13:51.588Z,6.90
2022-09-28T21:16:18.391Z,6.80
2022-09-28T21:18:45.646Z,6.80
2022-09-28T21:21:14.213Z,6.70
2022-09-28T21:23:41.095Z,6.60
2022-09-28T21:26:13.156Z,6.70
2022-09-28T21:28:40.446Z,6.60
2022-09-28T21:31:11.269Z,6.70
2022-09-28T21:33:38.326Z,6.60
2022-09-28T21:36:07.064Z,6.60
2022-09-28T21:38:34.775Z,6.70
2022-09-28T21:41:01.902Z,6.70
2022-09-28T21:43:30.043Z,6.60
2022-09-28T21:45:58.116Z,6.60
2022-09-28T21:48:27.099Z,6.60
2022-09-28T21:50:58.449Z,6.60
2022-09-28T21:53:27.464Z,6.50
2022-09-28T21:55:54.802Z,6.40
2022-09-28T21:58:23.461Z,6.50
2022-09-28T22:01:01.123Z,6.30
2022-09-28T22:03:29.004Z,6.30
2022-09-28T22:05:56.018Z,6.30
2022-09-28T22:08:23.456Z,6.20
2022-09-28T22:11:08.420Z,6.20
2022-09-28T22:13:47.086Z,6.20
2022-09-28T22:16:16.416Z,6.10
2022-09-28T22:18:43.933Z,6.10
2022-09-28T22:21:22.835Z,6.10
2022-09-28T22:23:50.110Z,6.10
2022-09-28T22:26:20.976Z,6.00
2022-09-28T22:28:53.396Z,6.10
2022-09-28T22:31:23.231Z,6.00
2022-09-28T22:33:50.188Z,5.90
2022-09-28T22:36:17.173Z,5.80
2022-09-28T22:38:44.679Z,5.80
2022-09-28T22:41:12.810Z,5.80
2022-09-28T22:43:39.794Z,5.80
2022-09-28T22:46:09.117Z,5.90
2022-09-28T22:48:36.232Z,5.80
2022-09-28T22:51:04.232Z,5.80
2022-09-28T22:53:31.051Z,5.80
2022-09-28T22:55:59.259Z,5.80
2022-09-28T22:58:26.166Z,5.70
2022-09-28T23:00:53.316Z,5.70
2022-09-28T23:03:20.115Z,5.70
2022-09-28T23:06:48.118Z,5.80
2022-09-28T23:09:15.235Z,5.60
2022-09-28T23:11:42.119Z,5.60
2022-09-28T23:14:11.109Z,5.60
2022-09-28T23:16:37.970Z,5.70
2022-09-28T23:19:04.820Z,5.70
2022-09-28T23:21:31.580Z,5.80
2022-09-28T23:24:01.664Z,5.80
2022-09-28T23:26:31.293Z,5.80
2022-09-28T23:28:59.509Z,5.80
2022-09-28T23:31:29.089Z,5.80
2022-09-28T23:34:04.149Z,5.80
2022-09-28T23:36:31.242Z,5.80
2022-09-28T23:38:58.444Z,5.80
2022-09-28T23:41:25.683Z,5.80
2022-09-28T23:43:52.433Z,5.90
2022-09-28T23:46:21.009Z,5.80
2022-09-28T23:48:48.478Z,5.80
2022-09-28T23:51:15.417Z,5.80
2022-09-28T23:53:43.230Z,5.90
2022-09-28T23:56:10.262Z,5.90
2022-09-28T23:58:37.030Z,5.90
